sensor_id;sensor_type;location;lat;lon;timestamp;P1;durP1;ratioP1;P2;durP2;ratioP2
84790;SDS011;75024;43.486;3.794;2024-01-27T00:00:25;12.40;;;5.80;;
84790;SDS011;75024;43.486;3.794;2024-01-27T00:02:51;6.47;;;3.20;;
84790;SDS011;75024;43.486;3.794;2024-01-27T00:05:17;5.47;;;3.40;;
84790;SDS011;75024;43.486;3.794;2024-01-27T00:07:42;4.43;;;2.72;;
84790;SDS011;75024;43.486;3.794;2024-01-27T00:10:08;5.90;;;2.22;;
84790;SDS011;75024;43.486;3.794;2024-01-27T00:12:34;2.90;;;2.15;;
84790;SDS011;75024;43.486;3.794;2024-01-27T00:15:00;3.00;;;2.17;;
84790;SDS011;75024;43.486;3.794;2024-01-27T00:17:25;6.20;;;2.30;;
84790;SDS011;75024;43.486;3.794;2024-01-27T00:19:53;3.88;;;2.35;;
84790;SDS011;75024;43.486;3.794;2024-01-27T00:22:19;5.05;;;2.70;;
84790;SDS011;75024;43.486;3.794;2024-01-27T00:24:48;5.07;;;2.80;;
84790;SDS011;75024;43.486;3.794;2024-01-27T00:27:13;4.03;;;2.50;;
84790;SDS011;75024;43.486;3.794;2024-01-27T00:29:39;7.07;;;3.42;;
84790;SDS011;75024;43.486;3.794;2024-01-27T00:32:05;5.22;;;3.17;;
84790;SDS011;75024;43.486;3.794;2024-01-27T00:34:31;5.85;;;2.67;;
84790;SDS011;75024;43.486;3.794;2024-01-27T00:36:56;6.50;;;3.22;;
84790;SDS011;75024;43.486;3.794;2024-01-27T00:39:22;6.22;;;2.75;;
84790;SDS011;75024;43.486;3.794;2024-01-27T00:41:48;5.47;;;2.88;;
84790;SDS011;75024;43.486;3.794;2024-01-27T00:44:13;6.68;;;3.10;;
84790;SDS011;75024;43.486;3.794;2024-01-27T00:46:39;8.52;;;3.90;;
84790;SDS011;75024;43.486;3.794;2024-01-27T00:49:05;5.88;;;3.03;;
84790;SDS011;75024;43.486;3.794;2024-01-27T00:51:31;6.55;;;3.13;;
84790;SDS011;75024;43.486;3.794;2024-01-27T00:53:57;5.18;;;3.63;;
84790;SDS011;75024;43.486;3.794;2024-01-27T00:56:22;4.75;;;3.22;;
84790;SDS011;75024;43.486;3.794;2024-01-27T00:58:48;5.80;;;3.20;;
84790;SDS011;75024;43.486;3.794;2024-01-27T01:01:14;4.57;;;2.60;;
84790;SDS011;75024;43.486;3.794;2024-01-27T01:03:40;3.75;;;3.25;;
84790;SDS011;75024;43.486;3.794;2024-01-27T01:06:05;4.20;;;3.40;;
84790;SDS011;75024;43.486;3.794;2024-01-27T01:08:31;6.25;;;3.35;;
84790;SDS011;75024;43.486;3.794;2024-01-27T01:10:57;6.35;;;3.17;;
84790;SDS011;75024;43.486;3.794;2024-01-27T01:13:23;4.18;;;3.00;;
84790;SDS011;75024;43.486;3.794;2024-01-27T01:15:49;4.75;;;2.90;;
84790;SDS011;75024;43.486;3.794;2024-01-27T01:18:15;5.28;;;2.92;;
84790;SDS011;75024;43.486;3.794;2024-01-27T01:20:40;4.45;;;2.75;;
84790;SDS011;75024;43.486;3.794;2024-01-27T01:23:06;6.47;;;3.58;;
84790;SDS011;75024;43.486;3.794;2024-01-27T01:25:32;16.05;;;6.80;;
84790;SDS011;75024;43.486;3.794;2024-01-27T01:27:58;18.73;;;9.48;;
84790;SDS011;75024;43.486;3.794;2024-01-27T01:30:23;11.82;;;5.93;;
84790;SDS011;75024;43.486;3.794;2024-01-27T01:32:49;12.52;;;5.55;;
84790;SDS011;75024;43.486;3.794;2024-01-27T01:35:15;9.18;;;4.68;;
84790;SDS011;75024;43.486;3.794;2024-01-27T01:37:41;8.27;;;4.40;;
84790;SDS011;75024;43.486;3.794;2024-01-27T01:40:06;9.00;;;3.75;;
84790;SDS011;75024;43.486;3.794;2024-01-27T01:42:33;4.80;;;2.95;;
84790;SDS011;75024;43.486;3.794;2024-01-27T01:44:58;3.83;;;2.45;;
84790;SDS011;75024;43.486;3.794;2024-01-27T01:47:24;5.45;;;2.35;;
84790;SDS011;75024;43.486;3.794;2024-01-27T01:49:50;4.00;;;2.03;;
84790;SDS011;75024;43.486;3.794;2024-01-27T01:52:17;5.82;;;2.97;;
84790;SDS011;75024;43.486;3.794;2024-01-27T01:54:49;5.47;;;3.08;;
84790;SDS011;75024;43.486;3.794;2024-01-27T01:57:15;4.03;;;2.63;;
84790;SDS011;75024;43.486;3.794;2024-01-27T01:59:41;3.65;;;2.78;;
84790;SDS011;75024;43.486;3.794;2024-01-27T02:02:08;4.47;;;2.33;;
84790;SDS011;75024;43.486;3.794;2024-01-27T02:04:40;5.15;;;2.42;;
84790;SDS011;75024;43.486;3.794;2024-01-27T02:07:11;4.88;;;3.15;;
84790;SDS011;75024;43.486;3.794;2024-01-27T02:09:37;6.40;;;3.65;;
84790;SDS011;75024;43.486;3.794;2024-01-27T02:12:03;5.32;;;2.83;;
84790;SDS011;75024;43.486;3.794;2024-01-27T02:14:29;5.13;;;3.22;;
84790;SDS011;75024;43.486;3.794;2024-01-27T02:16:55;4.15;;;2.20;;
84790;SDS011;75024;43.486;3.794;2024-01-27T02:19:21;3.83;;;2.92;;
84790;SDS011;75024;43.486;3.794;2024-01-27T02:21:47;4.88;;;2.78;;
84790;SDS011;75024;43.486;3.794;2024-01-27T02:24:13;3.35;;;2.67;;
84790;SDS011;75024;43.486;3.794;2024-01-27T02:26:39;5.07;;;2.60;;
84790;SDS011;75024;43.486;3.794;2024-01-27T02:29:04;4.32;;;2.45;;
84790;SDS011;75024;43.486;3.794;2024-01-27T02:31:30;3.35;;;1.88;;
84790;SDS011;75024;43.486;3.794;2024-01-27T02:33:55;3.03;;;2.10;;
84790;SDS011;75024;43.486;3.794;2024-01-27T02:36:21;5.50;;;2.63;;
84790;SDS011;75024;43.486;3.794;2024-01-27T02:38:47;6.75;;;3.22;;
84790;SDS011;75024;43.486;3.794;2024-01-27T02:41:12;4.75;;;2.50;;
84790;SDS011;75024;43.486;3.794;2024-01-27T02:43:39;3.67;;;2.72;;
84790;SDS011;75024;43.486;3.794;2024-01-27T02:46:07;3.80;;;2.05;;
84790;SDS011;75024;43.486;3.794;2024-01-27T02:48:36;4.13;;;2.55;;
84790;SDS011;75024;43.486;3.794;2024-01-27T02:51:04;3.55;;;2.15;;
84790;SDS011;75024;43.486;3.794;2024-01-27T02:53:30;2.30;;;2.10;;
84790;SDS011;75024;43.486;3.794;2024-01-27T02:55:56;3.08;;;1.73;;
84790;SDS011;75024;43.486;3.794;2024-01-27T02:58:21;3.53;;;2.33;;
84790;SDS011;75024;43.486;3.794;2024-01-27T03:00:47;3.22;;;1.83;;
84790;SDS011;75024;43.486;3.794;2024-01-27T03:03:13;3.38;;;1.90;;
84790;SDS011;75024;43.486;3.794;2024-01-27T03:05:40;2.75;;;1.80;;
84790;SDS011;75024;43.486;3.794;2024-01-27T03:08:06;2.72;;;1.63;;
84790;SDS011;75024;43.486;3.794;2024-01-27T03:10:32;2.97;;;2.25;;
84790;SDS011;75024;43.486;3.794;2024-01-27T03:12:57;3.00;;;2.15;;
84790;SDS011;75024;43.486;3.794;2024-01-27T03:15:23;3.38;;;1.90;;
84790;SDS011;75024;43.486;3.794;2024-01-27T03:17:49;3.83;;;2.33;;
84790;SDS011;75024;43.486;3.794;2024-01-27T03:20:14;3.67;;;1.60;;
84790;SDS011;75024;43.486;3.794;2024-01-27T03:22:40;2.55;;;1.70;;
84790;SDS011;75024;43.486;3.794;2024-01-27T03:25:07;5.72;;;2.45;;
84790;SDS011;75024;43.486;3.794;2024-01-27T03:27:38;3.78;;;1.95;;
84790;SDS011;75024;43.486;3.794;2024-01-27T03:30:04;2.58;;;1.77;;
84790;SDS011;75024;43.486;3.794;2024-01-27T03:32:30;2.42;;;2.00;;
84790;SDS011;75024;43.486;3.794;2024-01-27T03:35:00;3.22;;;1.77;;
84790;SDS011;75024;43.486;3.794;2024-01-27T03:37:26;2.28;;;1.52;;
84790;SDS011;75024;43.486;3.794;2024-01-27T03:39:52;4.80;;;2.42;;
84790;SDS011;75024;43.486;3.794;2024-01-27T03:42:17;3.78;;;1.92;;
84790;SDS011;75024;43.486;3.794;2024-01-27T03:44:43;4.32;;;2.25;;
84790;SDS011;75024;43.486;3.794;2024-01-27T03:47:09;4.22;;;1.80;;
84790;SDS011;75024;43.486;3.794;2024-01-27T03:49:37;3.45;;;1.85;;
84790;SDS011;75024;43.486;3.794;2024-01-27T03:52:03;3.13;;;1.70;;
84790;SDS011;75024;43.486;3.794;2024-01-27T03:54:29;2.58;;;1.85;;
84790;SDS011;75024;43.486;3.794;2024-01-27T03:56:54;4.00;;;1.75;;
84790;SDS011;75024;43.486;3.794;2024-01-27T03:59:20;3.50;;;2.15;;
84790;SDS011;75024;43.486;3.794;2024-01-27T04:01:46;2.50;;;1.75;;
84790;SDS011;75024;43.486;3.794;2024-01-27T04:04:12;3.33;;;1.98;;
84790;SDS011;75024;43.486;3.794;2024-01-27T04:06:41;4.78;;;2.50;;
84790;SDS011;75024;43.486;3.794;2024-01-27T04:09:07;5.53;;;2.70;;
84790;SDS011;75024;43.486;3.794;2024-01-27T04:11:34;4.18;;;2.42;;
84790;SDS011;75024;43.486;3.794;2024-01-27T04:14:01;6.30;;;2.95;;
84790;SDS011;75024;43.486;3.794;2024-01-27T04:16:27;6.45;;;2.72;;
84790;SDS011;75024;43.486;3.794;2024-01-27T04:18:53;6.40;;;2.50;;
84790;SDS011;75024;43.486;3.794;2024-01-27T04:21:18;5.28;;;2.95;;
84790;SDS011;75024;43.486;3.794;2024-01-27T04:23:44;5.63;;;2.50;;
84790;SDS011;75024;43.486;3.794;2024-01-27T04:26:10;3.65;;;2.65;;
84790;SDS011;75024;43.486;3.794;2024-01-27T04:28:36;9.60;;;4.20;;
84790;SDS011;75024;43.486;3.794;2024-01-27T04:31:01;7.70;;;4.30;;
84790;SDS011;75024;43.486;3.794;2024-01-27T04:33:27;5.75;;;3.00;;
84790;SDS011;75024;43.486;3.794;2024-01-27T04:35:53;4.85;;;3.30;;
84790;SDS011;75024;43.486;3.794;2024-01-27T04:38:19;4.57;;;3.28;;
84790;SDS011;75024;43.486;3.794;2024-01-27T04:40:45;6.43;;;2.72;;
84790;SDS011;75024;43.486;3.794;2024-01-27T04:43:14;5.88;;;2.38;;
84790;SDS011;75024;43.486;3.794;2024-01-27T04:45:41;5.15;;;3.20;;
84790;SDS011;75024;43.486;3.794;2024-01-27T04:48:07;4.60;;;2.92;;
84790;SDS011;75024;43.486;3.794;2024-01-27T04:50:33;4.95;;;2.83;;
84790;SDS011;75024;43.486;3.794;2024-01-27T04:52:59;4.22;;;2.63;;
84790;SDS011;75024;43.486;3.794;2024-01-27T04:55:24;4.72;;;2.58;;
84790;SDS011;75024;43.486;3.794;2024-01-27T04:57:50;3.00;;;2.25;;
84790;SDS011;75024;43.486;3.794;2024-01-27T05:00:16;4.70;;;1.90;;
84790;SDS011;75024;43.486;3.794;2024-01-27T05:02:43;2.65;;;2.17;;
84790;SDS011;75024;43.486;3.794;2024-01-27T05:05:08;4.13;;;2.50;;
84790;SDS011;75024;43.486;3.794;2024-01-27T05:07:34;4.82;;;1.80;;
84790;SDS011;75024;43.486;3.794;2024-01-27T05:10:00;3.95;;;1.77;;
84790;SDS011;75024;43.486;3.794;2024-01-27T05:12:26;3.15;;;1.90;;
84790;SDS011;75024;43.486;3.794;2024-01-27T05:14:51;2.47;;;1.40;;
84790;SDS011;75024;43.486;3.794;2024-01-27T05:17:17;5.88;;;1.73;;
84790;SDS011;75024;43.486;3.794;2024-01-27T05:19:43;2.17;;;1.98;;
84790;SDS011;75024;43.486;3.794;2024-01-27T05:22:09;4.55;;;2.10;;
84790;SDS011;75024;43.486;3.794;2024-01-27T05:24:35;3.30;;;1.50;;
84790;SDS011;75024;43.486;3.794;2024-01-27T05:27:00;6.75;;;1.48;;
84790;SDS011;75024;43.486;3.794;2024-01-27T05:29:27;3.17;;;1.40;;
84790;SDS011;75024;43.486;3.794;2024-01-27T05:31:53;4.43;;;1.80;;
84790;SDS011;75024;43.486;3.794;2024-01-27T05:34:19;5.88;;;1.48;;
84790;SDS011;75024;43.486;3.794;2024-01-27T05:36:46;4.05;;;1.42;;
84790;SDS011;75024;43.486;3.794;2024-01-27T05:39:13;4.03;;;1.83;;
84790;SDS011;75024;43.486;3.794;2024-01-27T05:41:39;6.35;;;1.55;;
84790;SDS011;75024;43.486;3.794;2024-01-27T05:44:04;3.90;;;2.10;;
84790;SDS011;75024;43.486;3.794;2024-01-27T05:46:30;3.58;;;1.83;;
84790;SDS011;75024;43.486;3.794;2024-01-27T05:48:56;3.92;;;1.90;;
84790;SDS011;75024;43.486;3.794;2024-01-27T05:51:26;4.38;;;2.20;;
84790;SDS011;75024;43.486;3.794;2024-01-27T05:53:52;4.03;;;2.70;;
84790;SDS011;75024;43.486;3.794;2024-01-27T05:56:18;5.60;;;2.50;;
84790;SDS011;75024;43.486;3.794;2024-01-27T05:58:45;6.25;;;2.67;;
84790;SDS011;75024;43.486;3.794;2024-01-27T06:01:11;5.05;;;3.00;;
84790;SDS011;75024;43.486;3.794;2024-01-27T06:03:37;4.68;;;3.35;;
84790;SDS011;75024;43.486;3.794;2024-01-27T06:06:03;5.30;;;3.30;;
84790;SDS011;75024;43.486;3.794;2024-01-27T06:08:29;6.32;;;2.83;;
84790;SDS011;75024;43.486;3.794;2024-01-27T06:10:54;8.18;;;3.00;;
84790;SDS011;75024;43.486;3.794;2024-01-27T06:13:20;6.20;;;2.60;;
84790;SDS011;75024;43.486;3.794;2024-01-27T06:15:46;7.97;;;2.60;;
84790;SDS011;75024;43.486;3.794;2024-01-27T06:18:11;3.78;;;2.65;;
84790;SDS011;75024;43.486;3.794;2024-01-27T06:20:37;4.15;;;2.40;;
84790;SDS011;75024;43.486;3.794;2024-01-27T06:23:05;3.65;;;2.50;;
84790;SDS011;75024;43.486;3.794;2024-01-27T06:25:31;4.03;;;2.30;;
84790;SDS011;75024;43.486;3.794;2024-01-27T06:27:57;4.63;;;2.30;;
84790;SDS011;75024;43.486;3.794;2024-01-27T06:30:23;5.28;;;2.63;;
84790;SDS011;75024;43.486;3.794;2024-01-27T06:32:49;3.08;;;2.10;;
84790;SDS011;75024;43.486;3.794;2024-01-27T06:35:15;4.00;;;2.20;;
84790;SDS011;75024;43.486;3.794;2024-01-27T06:37:40;4.22;;;2.45;;
84790;SDS011;75024;43.486;3.794;2024-01-27T06:40:06;5.20;;;2.05;;
84790;SDS011;75024;43.486;3.794;2024-01-27T06:42:34;4.35;;;2.83;;
84790;SDS011;75024;43.486;3.794;2024-01-27T06:45:00;7.85;;;2.85;;
84790;SDS011;75024;43.486;3.794;2024-01-27T06:47:25;3.28;;;2.50;;
84790;SDS011;75024;43.486;3.794;2024-01-27T06:49:51;3.60;;;2.05;;
84790;SDS011;75024;43.486;3.794;2024-01-27T06:52:16;4.60;;;2.30;;
84790;SDS011;75024;43.486;3.794;2024-01-27T06:54:42;2.70;;;1.98;;
84790;SDS011;75024;43.486;3.794;2024-01-27T06:57:22;2.78;;;2.45;;
84790;SDS011;75024;43.486;3.794;2024-01-27T06:59:49;4.28;;;2.25;;
84790;SDS011;75024;43.486;3.794;2024-01-27T07:02:23;5.63;;;2.40;;
84790;SDS011;75024;43.486;3.794;2024-01-27T07:04:51;4.47;;;2.78;;
84790;SDS011;75024;43.486;3.794;2024-01-27T07:07:17;6.80;;;2.15;;
84790;SDS011;75024;43.486;3.794;2024-01-27T07:09:47;2.33;;;1.60;;
84790;SDS011;75024;43.486;3.794;2024-01-27T07:12:13;4.13;;;1.88;;
84790;SDS011;75024;43.486;3.794;2024-01-27T07:14:38;4.80;;;1.88;;
84790;SDS011;75024;43.486;3.794;2024-01-27T07:17:04;2.88;;;2.58;;
84790;SDS011;75024;43.486;3.794;2024-01-27T07:19:30;4.80;;;2.28;;
84790;SDS011;75024;43.486;3.794;2024-01-27T07:21:57;2.67;;;2.20;;
84790;SDS011;75024;43.486;3.794;2024-01-27T07:24:23;4.03;;;1.92;;
84790;SDS011;75024;43.486;3.794;2024-01-27T07:26:48;2.90;;;1.80;;
84790;SDS011;75024;43.486;3.794;2024-01-27T07:29:14;4.30;;;2.33;;
84790;SDS011;75024;43.486;3.794;2024-01-27T07:31:39;3.42;;;2.38;;
84790;SDS011;75024;43.486;3.794;2024-01-27T07:34:05;3.28;;;2.50;;
84790;SDS011;75024;43.486;3.794;2024-01-27T07:36:31;3.58;;;2.50;;
84790;SDS011;75024;43.486;3.794;2024-01-27T07:38:57;5.75;;;2.97;;
84790;SDS011;75024;43.486;3.794;2024-01-27T07:41:24;4.55;;;2.58;;
84790;SDS011;75024;43.486;3.794;2024-01-27T07:43:49;4.38;;;2.78;;
84790;SDS011;75024;43.486;3.794;2024-01-27T07:46:15;6.45;;;2.50;;
84790;SDS011;75024;43.486;3.794;2024-01-27T07:48:41;10.45;;;3.30;;
84790;SDS011;75024;43.486;3.794;2024-01-27T07:51:06;5.45;;;3.13;;
84790;SDS011;75024;43.486;3.794;2024-01-27T07:53:33;4.43;;;2.97;;
84790;SDS011;75024;43.486;3.794;2024-01-27T07:55:59;2.85;;;2.10;;
84790;SDS011;75024;43.486;3.794;2024-01-27T07:58:25;2.95;;;2.28;;
84790;SDS011;75024;43.486;3.794;2024-01-27T08:00:51;4.97;;;2.78;;
84790;SDS011;75024;43.486;3.794;2024-01-27T08:03:16;7.32;;;4.28;;
84790;SDS011;75024;43.486;3.794;2024-01-27T08:05:42;11.48;;;6.57;;
84790;SDS011;75024;43.486;3.794;2024-01-27T08:08:07;12.25;;;6.25;;
84790;SDS011;75024;43.486;3.794;2024-01-27T08:10:33;11.25;;;5.32;;
84790;SDS011;75024;43.486;3.794;2024-01-27T08:12:59;16.02;;;8.82;;
84790;SDS011;75024;43.486;3.794;2024-01-27T08:15:25;11.38;;;6.60;;
84790;SDS011;75024;43.486;3.794;2024-01-27T08:17:50;11.55;;;6.65;;
84790;SDS011;75024;43.486;3.794;2024-01-27T08:20:16;12.40;;;6.38;;
84790;SDS011;75024;43.486;3.794;2024-01-27T08:22:42;12.55;;;8.07;;
84790;SDS011;75024;43.486;3.794;2024-01-27T08:25:07;12.32;;;7.50;;
84790;SDS011;75024;43.486;3.794;2024-01-27T08:27:33;6.57;;;3.30;;
84790;SDS011;75024;43.486;3.794;2024-01-27T08:29:59;3.60;;;2.83;;
84790;SDS011;75024;43.486;3.794;2024-01-27T08:32:24;2.67;;;1.70;;
84790;SDS011;75024;43.486;3.794;2024-01-27T08:34:50;2.83;;;1.63;;
84790;SDS011;75024;43.486;3.794;2024-01-27T08:37:19;5.20;;;1.63;;
84790;SDS011;75024;43.486;3.794;2024-01-27T08:39:46;2.08;;;1.40;;
84790;SDS011;75024;43.486;3.794;2024-01-27T08:42:11;2.72;;;1.70;;
84790;SDS011;75024;43.486;3.794;2024-01-27T08:44:38;2.00;;;1.52;;
84790;SDS011;75024;43.486;3.794;2024-01-27T08:47:04;2.78;;;1.80;;
84790;SDS011;75024;43.486;3.794;2024-01-27T08:49:30;3.33;;;2.00;;
84790;SDS011;75024;43.486;3.794;2024-01-27T08:51:56;2.00;;;1.50;;
84790;SDS011;75024;43.486;3.794;2024-01-27T08:54:22;2.88;;;1.65;;
84790;SDS011;75024;43.486;3.794;2024-01-27T08:56:48;4.40;;;2.85;;
84790;SDS011;75024;43.486;3.794;2024-01-27T08:59:14;4.32;;;3.22;;
84790;SDS011;75024;43.486;3.794;2024-01-27T09:01:40;5.70;;;3.70;;
84790;SDS011;75024;43.486;3.794;2024-01-27T09:04:07;3.53;;;3.13;;
84790;SDS011;75024;43.486;3.794;2024-01-27T09:06:32;4.28;;;3.00;;
84790;SDS011;75024;43.486;3.794;2024-01-27T09:08:58;5.13;;;2.70;;
84790;SDS011;75024;43.486;3.794;2024-01-27T09:11:24;2.85;;;2.22;;
84790;SDS011;75024;43.486;3.794;2024-01-27T09:13:55;3.65;;;1.90;;
84790;SDS011;75024;43.486;3.794;2024-01-27T09:16:21;4.03;;;1.77;;
84790;SDS011;75024;43.486;3.794;2024-01-27T09:18:47;2.92;;;1.70;;
84790;SDS011;75024;43.486;3.794;2024-01-27T09:21:15;2.22;;;1.50;;
84790;SDS011;75024;43.486;3.794;2024-01-27T09:23:45;3.17;;;1.30;;
84790;SDS011;75024;43.486;3.794;2024-01-27T09:26:12;1.95;;;1.02;;
84790;SDS011;75024;43.486;3.794;2024-01-27T09:28:38;1.98;;;1.10;;
84790;SDS011;75024;43.486;3.794;2024-01-27T09:33:36;13.38;;;6.00;;
84790;SDS011;75024;43.486;3.794;2024-01-27T09:36:02;13.70;;;6.50;;
84790;SDS011;75024;43.486;3.794;2024-01-27T09:38:29;13.82;;;6.15;;
84790;SDS011;75024;43.486;3.794;2024-01-27T09:41:00;6.43;;;2.78;;
84790;SDS011;75024;43.486;3.794;2024-01-27T09:43:28;3.88;;;1.75;;
84790;SDS011;75024;43.486;3.794;2024-01-27T09:45:56;2.45;;;1.23;;
84790;SDS011;75024;43.486;3.794;2024-01-27T09:48:22;1.58;;;1.13;;
84790;SDS011;75024;43.486;3.794;2024-01-27T09:50:47;1.30;;;1.00;;
84790;SDS011;75024;43.486;3.794;2024-01-27T09:53:16;1.10;;;0.63;;
84790;SDS011;75024;43.486;3.794;2024-01-27T09:55:43;1.63;;;0.93;;
84790;SDS011;75024;43.486;3.794;2024-01-27T09:58:09;1.25;;;0.88;;
84790;SDS011;75024;43.486;3.794;2024-01-27T10:00:36;1.02;;;0.93;;
84790;SDS011;75024;43.486;3.794;2024-01-27T10:03:03;1.73;;;0.73;;
84790;SDS011;75024;43.486;3.794;2024-01-27T10:05:31;1.90;;;1.10;;
84790;SDS011;75024;43.486;3.794;2024-01-27T10:07:57;1.58;;;1.20;;
84790;SDS011;75024;43.486;3.794;2024-01-27T10:10:23;2.25;;;1.42;;
84790;SDS011;75024;43.486;3.794;2024-01-27T10:12:49;1.80;;;1.17;;
84790;SDS011;75024;43.486;3.794;2024-01-27T10:15:19;3.72;;;1.02;;
84790;SDS011;75024;43.486;3.794;2024-01-27T10:17:45;2.15;;;1.13;;
84790;SDS011;75024;43.486;3.794;2024-01-27T10:20:11;2.92;;;1.40;;
84790;SDS011;75024;43.486;3.794;2024-01-27T10:22:40;2.17;;;1.60;;
84790;SDS011;75024;43.486;3.794;2024-01-27T10:25:07;2.50;;;1.42;;
84790;SDS011;75024;43.486;3.794;2024-01-27T10:27:33;1.73;;;1.50;;
84790;SDS011;75024;43.486;3.794;2024-01-27T10:30:00;1.60;;;1.50;;
84790;SDS011;75024;43.486;3.794;2024-01-27T10:32:26;4.03;;;1.25;;
84790;SDS011;75024;43.486;3.794;2024-01-27T10:37:46;5.53;;;1.65;;
84790;SDS011;75024;43.486;3.794;2024-01-27T10:40:16;5.10;;;0.88;;
84790;SDS011;75024;43.486;3.794;2024-01-27T10:42:42;2.47;;;0.98;;
84790;SDS011;75024;43.486;3.794;2024-01-27T10:45:10;1.83;;;0.77;;
84790;SDS011;75024;43.486;3.794;2024-01-27T10:47:37;1.23;;;0.82;;
84790;SDS011;75024;43.486;3.794;2024-01-27T10:50:05;1.55;;;1.02;;
84790;SDS011;75024;43.486;3.794;2024-01-27T10:52:37;1.67;;;1.00;;
84790;SDS011;75024;43.486;3.794;2024-01-27T10:55:06;1.58;;;0.70;;
84790;SDS011;75024;43.486;3.794;2024-01-27T10:57:34;1.10;;;0.85;;
84790;SDS011;75024;43.486;3.794;2024-01-27T11:00:02;0.60;;;0.60;;
84790;SDS011;75024;43.486;3.794;2024-01-27T11:02:34;1.10;;;0.40;;
84790;SDS011;75024;43.486;3.794;2024-01-27T11:05:02;0.75;;;0.75;;
84790;SDS011;75024;43.486;3.794;2024-01-27T11:07:30;1.27;;;0.80;;
84790;SDS011;75024;43.486;3.794;2024-01-27T11:09:58;1.08;;;0.77;;
84790;SDS011;75024;43.486;3.794;2024-01-27T11:12:23;0.50;;;0.50;;
84790;SDS011;75024;43.486;3.794;2024-01-27T11:14:50;1.10;;;1.00;;
84790;SDS011;75024;43.486;3.794;2024-01-27T11:17:17;1.08;;;0.60;;
84790;SDS011;75024;43.486;3.794;2024-01-27T11:19:44;0.70;;;0.50;;
84790;SDS011;75024;43.486;3.794;2024-01-27T11:22:44;0.73;;;0.30;;
84790;SDS011;75024;43.486;3.794;2024-01-27T11:25:07;0.52;;;0.38;;
84790;SDS011;75024;43.486;3.794;2024-01-27T11:27:43;0.60;;;0.60;;
84790;SDS011;75024;43.486;3.794;2024-01-27T11:32:55;0.90;;;0.73;;
84790;SDS011;75024;43.486;3.794;2024-01-27T11:35:22;0.85;;;0.50;;
84790;SDS011;75024;43.486;3.794;2024-01-27T11:37:51;0.73;;;0.73;;
84790;SDS011;75024;43.486;3.794;2024-01-27T11:40:17;1.25;;;0.70;;
84790;SDS011;75024;43.486;3.794;2024-01-27T11:42:43;1.05;;;0.73;;
84790;SDS011;75024;43.486;3.794;2024-01-27T11:45:09;0.82;;;0.40;;
84790;SDS011;75024;43.486;3.794;2024-01-27T11:47:35;1.83;;;0.98;;
84790;SDS011;75024;43.486;3.794;2024-01-27T11:50:01;1.98;;;0.75;;
84790;SDS011;75024;43.486;3.794;2024-01-27T11:52:28;0.93;;;0.82;;
84790;SDS011;75024;43.486;3.794;2024-01-27T11:55:00;1.52;;;1.20;;
84790;SDS011;75024;43.486;3.794;2024-01-27T11:57:26;0.73;;;0.73;;
84790;SDS011;75024;43.486;3.794;2024-01-27T11:59:52;1.67;;;0.95;;
84790;SDS011;75024;43.486;3.794;2024-01-27T12:02:18;1.30;;;0.68;;
84790;SDS011;75024;43.486;3.794;2024-01-27T12:04:45;1.00;;;0.60;;
84790;SDS011;75024;43.486;3.794;2024-01-27T12:07:12;1.33;;;0.88;;
84790;SDS011;75024;43.486;3.794;2024-01-27T12:09:38;1.00;;;0.88;;
84790;SDS011;75024;43.486;3.794;2024-01-27T12:12:04;1.52;;;0.63;;
84790;SDS011;75024;43.486;3.794;2024-01-27T12:14:46;0.40;;;0.40;;
84790;SDS011;75024;43.486;3.794;2024-01-27T12:17:13;1.60;;;0.60;;
84790;SDS011;75024;43.486;3.794;2024-01-27T12:19:45;1.33;;;0.45;;
84790;SDS011;75024;43.486;3.794;2024-01-27T12:22:25;0.98;;;0.50;;
84790;SDS011;75024;43.486;3.794;2024-01-27T12:24:53;1.45;;;0.57;;
84790;SDS011;75024;43.486;3.794;2024-01-27T12:27:19;1.05;;;0.60;;
84790;SDS011;75024;43.486;3.794;2024-01-27T12:29:47;4.70;;;1.95;;
84790;SDS011;75024;43.486;3.794;2024-01-27T12:32:14;1.10;;;1.00;;
84790;SDS011;75024;43.486;3.794;2024-01-27T12:34:41;1.30;;;0.68;;
84790;SDS011;75024;43.486;3.794;2024-01-27T12:37:08;1.70;;;0.80;;
84790;SDS011;75024;43.486;3.794;2024-01-27T12:39:36;2.67;;;0.80;;
84790;SDS011;75024;43.486;3.794;2024-01-27T12:42:03;1.83;;;0.80;;
84790;SDS011;75024;43.486;3.794;2024-01-27T12:44:29;1.20;;;1.20;;
84790;SDS011;75024;43.486;3.794;2024-01-27T12:46:55;2.35;;;1.38;;
84790;SDS011;75024;43.486;3.794;2024-01-27T12:49:22;1.92;;;1.35;;
84790;SDS011;75024;43.486;3.794;2024-01-27T12:51:48;0.32;;;0.30;;
84790;SDS011;75024;43.486;3.794;2024-01-27T12:54:13;0.73;;;0.40;;
84790;SDS011;75024;43.486;3.794;2024-01-27T12:56:40;0.35;;;0.35;;
84790;SDS011;75024;43.486;3.794;2024-01-27T12:59:05;0.75;;;0.40;;
84790;SDS011;75024;43.486;3.794;2024-01-27T13:01:33;1.40;;;1.30;;
84790;SDS011;75024;43.486;3.794;2024-01-27T13:03:59;1.20;;;0.70;;
84790;SDS011;75024;43.486;3.794;2024-01-27T13:06:25;0.38;;;0.30;;
84790;SDS011;75024;43.486;3.794;2024-01-27T13:08:51;0.93;;;0.40;;
84790;SDS011;75024;43.486;3.794;2024-01-27T13:11:17;0.13;;;0.13;;
84790;SDS011;75024;43.486;3.794;2024-01-27T13:13:43;0.35;;;0.20;;
84790;SDS011;75024;43.486;3.794;2024-01-27T13:16:09;0.73;;;0.40;;
84790;SDS011;75024;43.486;3.794;2024-01-27T13:18:35;0.63;;;0.32;;
84790;SDS011;75024;43.486;3.794;2024-01-27T13:21:01;0.60;;;0.30;;
84790;SDS011;75024;43.486;3.794;2024-01-27T13:23:26;0.52;;;0.30;;
84790;SDS011;75024;43.486;3.794;2024-01-27T13:25:52;0.40;;;0.30;;
84790;SDS011;75024;43.486;3.794;2024-01-27T13:28:18;1.10;;;0.45;;
84790;SDS011;75024;43.486;3.794;2024-01-27T13:30:45;0.60;;;0.40;;
84790;SDS011;75024;43.486;3.794;2024-01-27T13:33:10;0.60;;;0.30;;
84790;SDS011;75024;43.486;3.794;2024-01-27T13:35:37;1.10;;;0.40;;
84790;SDS011;75024;43.486;3.794;2024-01-27T13:38:05;0.80;;;0.32;;
84790;SDS011;75024;43.486;3.794;2024-01-27T13:40:31;0.50;;;0.50;;
84790;SDS011;75024;43.486;3.794;2024-01-27T13:42:56;0.93;;;0.55;;
84790;SDS011;75024;43.486;3.794;2024-01-27T13:45:23;0.47;;;0.38;;
84790;SDS011;75024;43.486;3.794;2024-01-27T13:47:48;1.77;;;0.30;;
84790;SDS011;75024;43.486;3.794;2024-01-27T13:50:14;0.73;;;0.20;;
84790;SDS011;75024;43.486;3.794;2024-01-27T13:52:40;0.20;;;0.20;;
84790;SDS011;75024;43.486;3.794;2024-01-27T13:55:08;0.80;;;0.32;;
84790;SDS011;75024;43.486;3.794;2024-01-27T13:57:34;0.38;;;0.20;;
84790;SDS011;75024;43.486;3.794;2024-01-27T14:00:00;0.35;;;0.35;;
84790;SDS011;75024;43.486;3.794;2024-01-27T14:02:26;0.32;;;0.32;;
84790;SDS011;75024;43.486;3.794;2024-01-27T14:04:52;0.95;;;0.30;;
84790;SDS011;75024;43.486;3.794;2024-01-27T14:07:18;0.30;;;0.20;;
84790;SDS011;75024;43.486;3.794;2024-01-27T14:09:43;0.43;;;0.22;;
84790;SDS011;75024;43.486;3.794;2024-01-27T14:12:09;0.63;;;0.35;;
84790;SDS011;75024;43.486;3.794;2024-01-27T14:14:35;0.50;;;0.40;;
84790;SDS011;75024;43.486;3.794;2024-01-27T14:17:04;1.55;;;0.17;;
84790;SDS011;75024;43.486;3.794;2024-01-27T14:19:29;0.47;;;0.35;;
84790;SDS011;75024;43.486;3.794;2024-01-27T14:21:55;1.00;;;0.30;;
84790;SDS011;75024;43.486;3.794;2024-01-27T14:24:21;1.63;;;0.50;;
84790;SDS011;75024;43.486;3.794;2024-01-27T14:26:46;0.63;;;0.40;;
84790;SDS011;75024;43.486;3.794;2024-01-27T14:29:12;0.75;;;0.30;;
84790;SDS011;75024;43.486;3.794;2024-01-27T14:31:38;0.60;;;0.60;;
84790;SDS011;75024;43.486;3.794;2024-01-27T14:34:03;0.30;;;0.20;;
84790;SDS011;75024;43.486;3.794;2024-01-27T14:36:29;1.10;;;0.60;;
84790;SDS011;75024;43.486;3.794;2024-01-27T14:38:55;0.50;;;0.50;;
84790;SDS011;75024;43.486;3.794;2024-01-27T14:41:21;0.43;;;0.43;;
84790;SDS011;75024;43.486;3.794;2024-01-27T14:43:48;0.30;;;0.30;;
84790;SDS011;75024;43.486;3.794;2024-01-27T14:46:15;0.70;;;0.38;;
84790;SDS011;75024;43.486;3.794;2024-01-27T14:48:42;0.50;;;0.50;;
84790;SDS011;75024;43.486;3.794;2024-01-27T14:51:09;1.77;;;0.57;;